createdAt,value
2022-09-21T00:01:37.417Z,98421.03
2022-09-21T00:04:06.192Z,98417.50
2022-09-21T00:06:35.165Z,98414.66
2022-09-21T00:09:05.476Z,98415.34
2022-09-21T00:11:35.916Z,98413.06
2022-09-21T00:14:07.429Z,98419.47
2022-09-21T00:16:35.918Z,98414.22
2022-09-21T00:19:04.647Z,98415.38
2022-09-21T00:21:33.420Z,98418.25
2022-09-21T00:24:02.808Z,98421.03
2022-09-21T00:26:31.218Z,98427.56
2022-09-21T00:29:01.900Z,98422.03
2022-09-21T00:31:31.364Z,98425.06
2022-09-21T00:34:00.666Z,98427.16
2022-09-21T00:36:29.488Z,98425.16
2022-09-21T00:38:58.459Z,98439.78
2022-09-21T00:41:27.189Z,98434.81
2022-09-21T00:44:26.617Z,98437.94
2022-09-21T00:46:56.041Z,98436.16
2022-09-21T00:49:26.019Z,98434.53
2022-09-21T00:51:54.597Z,98436.16
2022-09-21T00:54:26.368Z,98436.06
2022-09-21T00:56:55.150Z,98430.13
2022-09-21T00:59:29.972Z,98438.16
2022-09-21T01:01:59.265Z,98438.72
2022-09-21T01:04:28.522Z,98436.75
2022-09-21T01:06:57.163Z,98440.84
2022-09-21T01:09:25.477Z,98443.03
2022-09-21T01:12:01.233Z,98437.22
2022-09-21T01:14:46.076Z,98440.09
2022-09-21T01:17:16.188Z,98436.66
2022-09-21T01:20:05.858Z,98444.28
2022-09-21T01:22:42.196Z,98434.84
2022-09-21T01:25:13.120Z,98441.13
2022-09-21T01:27:54.552Z,98434.25
2022-09-21T01:30:24.485Z,98443.16
2022-09-21T01:32:54.410Z,98440.66
2022-09-21T01:35:24.776Z,98443.06
2022-09-21T01:37:54.908Z,98445.72
2022-09-21T01:40:25.413Z,98447.63
2022-09-21T01:42:53.819Z,98444.38
2022-09-21T01:45:27.486Z,98449.13
2022-09-21T01:47:58.033Z,98447.16
2022-09-21T01:50:27.443Z,98439.88
2022-09-21T01:52:57.358Z,98441.53
2022-09-21T01:55:28.341Z,98453.72
2022-09-21T01:57:58.334Z,98450.28
2022-09-21T02:00:28.262Z,98451.44
2022-09-21T02:02:58.689Z,98449.53
2022-09-21T02:05:27.954Z,98441.81
2022-09-21T02:07:56.320Z,98446.56
2022-09-21T02:10:25.982Z,98447.06
2022-09-21T02:12:55.378Z,98445.94
2022-09-21T02:15:24.647Z,98446.41
2022-09-21T02:17:58.891Z,98448.44
2022-09-21T02:20:29.521Z,98447.66
2022-09-21T02:23:04.738Z,98446.72
2022-09-21T02:25:40.442Z,98445.09
2022-09-21T02:28:10.322Z,98445.94
2022-09-21T02:30:38.651Z,98440.63
2022-09-21T02:33:11.789Z,98438.34
2022-09-21T02:35:43.164Z,98447.19
2022-09-21T02:38:13.720Z,98442.50
2022-09-21T02:40:42.734Z,98440.63
2022-09-21T02:43:13.881Z,98437.28
2022-09-21T02:45:45.965Z,98438.03
2022-09-21T02:48:17.205Z,98429.38
2022-09-21T02:50:48.017Z,98432.91
2022-09-21T02:53:17.675Z,98429.16
2022-09-21T02:55:47.115Z,98434.03
2022-09-21T02:58:16.660Z,98436.88
2022-09-21T03:00:45.571Z,98427.75
2022-09-21T03:03:19.523Z,98434.81
2022-09-21T03:05:49.231Z,98440.63
2022-09-21T03:08:18.103Z,98440.31
2022-09-21T03:10:47.023Z,98437.84
2022-09-21T03:13:15.389Z,98431.38
2022-09-21T03:15:44.107Z,98434.34
2022-09-21T03:18:12.823Z,98431.66
2022-09-21T03:20:46.287Z,98430.50
2022-09-21T03:23:14.692Z,98429.72
2022-09-21T03:25:47.740Z,98437.84
2022-09-21T03:28:16.655Z,98440.09
2022-09-21T03:30:45.020Z,98439.28
2022-09-21T03:33:14.441Z,98437.34
2022-09-21T03:35:44.320Z,98433.09
2022-09-21T03:38:13.020Z,98445.56
2022-09-21T03:40:41.715Z,98439.63
2022-09-21T03:43:10.063Z,98442.75
2022-09-21T03:45:41.208Z,98444.19
2022-09-21T03:48:09.548Z,98446.84
2022-09-21T03:50:38.319Z,98442.59
2022-09-21T03:53:08.084Z,98446.84
2022-09-21T03:55:36.424Z,98446.50
2022-09-21T03:58:06.191Z,98446.44
2022-09-21T04:00:34.531Z,98445.59
2022-09-21T04:03:02.879Z,98439.91
2022-09-21T04:05:31.452Z,98443.78
2022-09-21T04:08:02.232Z,98441.41
2022-09-21T04:10:35.985Z,98448.56
2022-09-21T04:13:04.618Z,98448.09
2022-09-21T04:15:33.032Z,98452.72
2022-09-21T04:18:03.005Z,98447.16
2022-09-21T04:20:31.349Z,98447.94
2022-09-21T04:23:00.266Z,98447.41
2022-09-21T04:25:28.999Z,98443.69
2022-09-21T04:27:58.710Z,98447.53
2022-09-21T04:30:27.058Z,98445.66
2022-09-21T04:32:55.819Z,98442.38
2022-09-21T04:35:24.172Z,98449.03
2022-09-21T04:37:53.078Z,98454.84
2022-09-21T04:40:21.517Z,98452.66
2022-09-21T04:42:52.795Z,98442.28
2022-09-21T04:45:22.793Z,98451.22
2022-09-21T04:47:51.886Z,98453.72
2022-09-21T04:50:21.007Z,98455.53
2022-09-21T04:52:52.129Z,98461.72
2022-09-21T04:55:20.956Z,98459.22
2022-09-21T04:57:49.296Z,98462.34
2022-09-21T05:00:17.921Z,98459.31
2022-09-21T05:02:48.878Z,98455.00
2022-09-21T05:05:17.814Z,98463.88
2022-09-21T05:07:46.136Z,98465.53
2022-09-21T05:10:13.477Z,98469.56
2022-09-21T05:12:42.428Z,98466.22
2022-09-21T05:15:11.600Z,98460.22
2022-09-21T05:17:40.458Z,98470.69
2022-09-21T05:20:11.807Z,98473.63
2022-09-21T05:22:40.195Z,98471.53
2022-09-21T05:25:09.678Z,98472.69
2022-09-21T05:27:38.451Z,98475.06
2022-09-21T05:30:10.843Z,98481.34
2022-09-21T05:32:51.374Z,98482.56
2022-09-21T05:35:25.151Z,98492.75
2022-09-21T05:37:56.958Z,98488.47
2022-09-21T05:40:29.108Z,98492.78
2022-09-21T05:42:58.602Z,98490.13
2022-09-21T05:45:29.158Z,98489.88
2022-09-21T05:48:01.025Z,98490.19
2022-09-21T05:50:39.964Z,98493.16
2022-09-21T05:53:19.632Z,98496.09
2022-09-21T05:55:53.280Z,98495.72
2022-09-21T05:58:24.157Z,98498.31
2022-09-21T06:01:05.370Z,98503.28
2022-09-21T06:03:37.308Z,98501.38
2022-09-21T06:06:08.864Z,98502.44
2022-09-21T06:08:37.891Z,98501.09
2022-09-21T06:11:06.487Z,98512.19
2022-09-21T06:13:34.866Z,98510.63
2022-09-21T06:16:03.790Z,98513.78
2022-09-21T06:18:42.576Z,98506.28
2022-09-21T06:21:12.696Z,98512.34
2022-09-21T06:23:41.075Z,98503.41
2022-09-21T06:26:10.309Z,98509.88
2022-09-21T06:28:41.387Z,98509.59
2022-09-21T06:31:10.474Z,98510.06
2022-09-21T06:33:39.268Z,98505.75
2022-09-21T06:36:10.372Z,98505.63
2022-09-21T06:38:42.938Z,98501.31
2022-09-21T06:41:11.485Z,98506.63
2022-09-21T06:43:40.054Z,98505.69
2022-09-21T06:46:09.993Z,98508.19
2022-09-21T06:48:38.443Z,98507.69
2022-09-21T06:51:07.359Z,98504.31
2022-09-21T06:53:35.945Z,98505.50
2022-09-21T06:56:06.908Z,98509.16
2022-09-21T06:58:36.021Z,98498.75
2022-09-21T07:01:08.263Z,98498.22
2022-09-21T07:03:36.904Z,98506.06
2022-09-21T07:06:23.452Z,98501.66
2022-09-21T07:11:43.298Z,98503.69
2022-09-21T07:14:12.774Z,98503.34
2022-09-21T07:16:41.299Z,98504.41
2022-09-21T07:19:11.981Z,98508.69
2022-09-21T07:21:40.776Z,98501.28
2022-09-21T07:24:12.361Z,98505.75
2022-09-21T07:26:42.549Z,98506.56
2022-09-21T07:29:10.920Z,98504.78
2022-09-21T07:31:39.819Z,98514.19
2022-09-21T07:34:08.294Z,98511.13
2022-09-21T07:36:37.093Z,98505.91
2022-09-21T07:39:05.643Z,98506.25
2022-09-21T07:41:34.571Z,98502.59
2022-09-21T07:44:04.621Z,98508.16
2022-09-21T07:46:32.964Z,98512.97
2022-09-21T07:49:01.361Z,98511.28
2022-09-21T07:51:48.451Z,98506.63
2022-09-21T07:54:17.494Z,98506.28
2022-09-21T07:57:06.367Z,98507.91
2022-09-21T07:59:36.183Z,98500.56
2022-09-21T08:02:05.601Z,98493.53
2022-09-21T08:04:34.051Z,98500.88
2022-09-21T08:07:03.502Z,98499.78
2022-09-21T08:12:18.950Z,98503.31
2022-09-21T08:14:48.936Z,98492.47
2022-09-21T08:17:17.311Z,98494.81
2022-09-21T08:20:23.067Z,98501.38
2022-09-21T08:22:53.877Z,98492.34
2022-09-21T08:25:22.737Z,98496.41
2022-09-21T08:27:51.144Z,98497.50
2022-09-21T08:30:21.641Z,98495.66
2022-09-21T08:32:54.350Z,98495.91
2022-09-21T08:35:22.869Z,98494.63
2022-09-21T08:37:52.162Z,98497.09
2022-09-21T08:40:21.660Z,98492.53
2022-09-21T08:42:54.385Z,98495.47
2022-09-21T08:45:24.779Z,98493.75
2022-09-21T08:47:54.085Z,98493.00
2022-09-21T08:50:29.925Z,98497.75
2022-09-21T08:53:02.229Z,98497.78
2022-09-21T08:55:30.641Z,98494.31
2022-09-21T08:58:00.180Z,98495.28
2022-09-21T09:00:30.002Z,98498.84
2022-09-21T09:03:15.692Z,98501.81
2022-09-21T09:05:48.480Z,98501.06
2022-09-21T09:08:25.437Z,98501.31
2022-09-21T09:10:59.549Z,98498.72
2022-09-21T09:13:38.396Z,98496.97
2022-09-21T09:16:12.882Z,98505.78
2022-09-21T09:18:44.151Z,98500.84
2022-09-21T09:21:17.087Z,98500.75
2022-09-21T09:23:51.449Z,98504.91
2022-09-21T09:26:21.778Z,98505.03
2022-09-21T09:28:53.230Z,98507.47
2022-09-21T09:31:43.641Z,98504.13
2022-09-21T09:34:14.382Z,98495.56
2022-09-21T09:37:00.750Z,98495.69
2022-09-21T09:39:31.613Z,98484.28
2022-09-21T09:42:08.278Z,98491.47
2022-09-21T09:44:49.957Z,98493.75
2022-09-21T09:47:25.019Z,98498.53
2022-09-21T09:50:00.315Z,98492.25
2022-09-21T09:52:29.116Z,98494.09
2022-09-21T09:54:57.488Z,98490.25
2022-09-21T09:57:29.436Z,98494.56
2022-09-21T09:59:59.719Z,98494.88
2022-09-21T10:02:32.101Z,98488.38
2022-09-21T10:05:06.709Z,98491.25
2022-09-21T10:07:36.191Z,98491.38
2022-09-21T10:10:05.760Z,98492.78
2022-09-21T10:12:35.012Z,98486.47
2022-09-21T10:15:05.664Z,98487.59
2022-09-21T10:17:36.384Z,98486.53
2022-09-21T10:20:06.691Z,98476.09
2022-09-21T10:22:35.509Z,98491.16
2022-09-21T10:25:06.492Z,98483.44
2022-09-21T10:27:36.119Z,98485.97
2022-09-21T10:30:04.664Z,98475.13
2022-09-21T10:32:35.345Z,98478.44
2022-09-21T10:35:15.665Z,98472.34
2022-09-21T10:37:44.595Z,98467.84
2022-09-21T10:40:26.312Z,98471.59
2022-09-21T10:42:56.330Z,98472.25
2022-09-21T10:45:26.266Z,98467.22
2022-09-21T10:47:57.543Z,98479.59
2022-09-21T10:50:28.837Z,98471.19
2022-09-21T10:53:01.206Z,98468.09
2022-09-21T10:55:30.835Z,98468.53
2022-09-21T10:57:59.194Z,98464.81
2022-09-21T11:00:35.598Z,98467.66
2022-09-21T11:03:25.417Z,98465.69
2022-09-21T11:05:53.876Z,98460.28
2022-09-21T11:08:25.048Z,98465.94
2022-09-21T11:11:05.149Z,98471.34
2022-09-21T11:13:38.757Z,98465.09
2022-09-21T11:16:15.148Z,98460.78
2022-09-21T11:18:48.437Z,98458.94
2022-09-21T11:21:20.152Z,98454.25
2022-09-21T11:23:54.642Z,98450.06
2022-09-21T11:26:27.109Z,98445.41
2022-09-21T11:29:00.305Z,98444.16
2022-09-21T11:31:41.823Z,98447.41
2022-09-21T11:34:28.228Z,98451.38
2022-09-21T11:37:19.736Z,98450.28
2022-09-21T11:39:57.051Z,98450.84
2022-09-21T11:42:36.221Z,98443.44
2022-09-21T11:45:09.414Z,98442.13
2022-09-21T11:47:54.105Z,98444.44
2022-09-21T11:50:35.553Z,98446.72
2022-09-21T11:53:14.771Z,98445.69
2022-09-21T11:55:50.308Z,98435.91
2022-09-21T11:58:23.072Z,98442.34
2022-09-21T12:00:58.898Z,98435.22
2022-09-21T12:03:41.554Z,98441.50
2022-09-21T12:06:22.547Z,98443.78
2022-09-21T12:09:12.089Z,98439.94
2022-09-21T12:11:41.778Z,98438.66
2022-09-21T12:14:16.907Z,98432.69
2022-09-21T12:16:48.675Z,98427.41
2022-09-21T12:19:23.060Z,98435.50
2022-09-21T12:21:56.061Z,98430.69
2022-09-21T12:24:31.996Z,98431.94
2022-09-21T12:27:03.195Z,98428.09
2022-09-21T12:29:33.384Z,98421.22
2022-09-21T12:32:05.716Z,98421.25
2022-09-21T12:34:36.897Z,98422.41
2022-09-21T12:37:09.698Z,98421.56
2022-09-21T12:39:41.342Z,98419.75
2022-09-21T12:42:22.726Z,98417.13
2022-09-21T12:44:54.862Z,98415.44
2022-09-21T12:47:27.481Z,98408.88
2022-09-21T12:49:59.267Z,98409.78
2022-09-21T12:52:29.114Z,98406.81
2022-09-21T12:55:01.118Z,98406.44
2022-09-21T13:00:27.505Z,98401.81
2022-09-21T13:02:59.953Z,98398.06
2022-09-21T13:05:36.326Z,98403.19
2022-09-21T13:08:08.940Z,98394.91
2022-09-21T13:10:41.723Z,98403.41
2022-09-21T13:13:21.072Z,98393.81
2022-09-21T13:15:50.228Z,98393.81
2022-09-21T13:18:22.131Z,98400.97
2022-09-21T13:20:52.387Z,98393.00
2022-09-21T13:23:24.822Z,98391.25
2022-09-21T13:26:02.715Z,98386.84
2022-09-21T13:28:42.964Z,98384.88
2022-09-21T13:31:41.344Z,98381.44
2022-09-21T13:34:24.250Z,98386.44
2022-09-21T13:40:35.970Z,98382.31
2022-09-21T13:43:21.118Z,98378.72
2022-09-21T13:45:54.766Z,98380.56
2022-09-21T13:48:29.550Z,98381.38
2022-09-21T13:50:59.792Z,98376.59
2022-09-21T13:53:36.039Z,98362.94
2022-09-21T13:56:17.787Z,98358.50
2022-09-21T13:58:48.428Z,98352.34
2022-09-21T14:01:45.174Z,98349.56
2022-09-21T14:04:17.781Z,98345.47
2022-09-21T14:06:48.759Z,98340.13
2022-09-21T14:09:23.360Z,98344.03
2022-09-21T14:12:01.874Z,98358.69
2022-09-21T14:14:32.164Z,98356.63
2022-09-21T14:17:01.128Z,98346.97
2022-09-21T14:19:58.996Z,98338.97
2022-09-21T14:22:40.733Z,98345.06
2022-09-21T14:25:25.906Z,98328.84
2022-09-21T14:27:56.077Z,98344.84
2022-09-21T14:30:25.655Z,98343.66
2022-09-21T14:33:24.031Z,98334.66
2022-09-21T14:35:52.856Z,98341.34
2022-09-21T14:38:24.274Z,98339.44
2022-09-21T14:41:09.847Z,98329.91
2022-09-21T14:43:45.063Z,98329.91
2022-09-21T14:46:24.873Z,98335.19
2022-09-21T14:49:00.998Z,98331.63
2022-09-21T14:51:38.761Z,98327.63
2022-09-21T14:54:14.617Z,98321.38
2022-09-21T14:56:51.902Z,98318.47
2022-09-21T14:59:29.827Z,98323.19
2022-09-21T15:05:33.980Z,98322.31
2022-09-21T15:08:42.813Z,98320.22
2022-09-21T15:11:14.323Z,98315.06
2022-09-21T15:13:56.602Z,98320.69
2022-09-21T15:16:36.088Z,98318.16
2022-09-21T15:19:13.632Z,98310.16
2022-09-21T15:21:44.004Z,98302.97
2022-09-21T15:24:19.268Z,98311.09
2022-09-21T15:26:47.760Z,98312.84
2022-09-21T15:29:23.774Z,98312.22
2022-09-21T15:31:53.613Z,98312.06
2022-09-21T15:34:22.481Z,98307.31
2022-09-21T15:36:53.008Z,98303.19
2022-09-21T15:39:24.225Z,98300.66
2022-09-21T15:42:00.705Z,98306.63
2022-09-21T15:44:33.889Z,98302.66
2022-09-21T15:47:04.094Z,98295.97
2022-09-21T15:49:32.546Z,98299.19
2022-09-21T15:52:03.146Z,98303.91
2022-09-21T15:54:33.294Z,98310.38
2022-09-21T15:57:07.346Z,98304.53
2022-09-21T15:59:36.682Z,98298.19
2022-09-21T16:02:13.809Z,98295.75
2022-09-21T16:04:49.519Z,98301.75
2022-09-21T16:07:27.409Z,98299.47
2022-09-21T16:09:58.574Z,98304.47
2022-09-21T16:12:42.237Z,98311.84
2022-09-21T16:15:16.757Z,98308.13
2022-09-21T16:18:17.425Z,98305.63
2022-09-21T16:20:48.303Z,98314.53
2022-09-21T16:23:40.165Z,98302.75
2022-09-21T16:26:09.134Z,98306.16
2022-09-21T16:28:39.157Z,98308.69
2022-09-21T16:31:38.815Z,98312.00
2022-09-21T16:34:21.961Z,98313.94
2022-09-21T16:36:51.629Z,98313.78
2022-09-21T16:39:21.420Z,98315.66
2022-09-21T16:41:53.444Z,98308.97
2022-09-21T16:44:23.056Z,98313.94
2022-09-21T16:46:54.990Z,98321.03
2022-09-21T16:49:30.164Z,98318.47
2022-09-21T16:51:59.971Z,98317.03
2022-09-21T16:54:28.375Z,98317.16
2022-09-21T16:56:58.772Z,98319.97
2022-09-21T16:59:27.282Z,98317.41
2022-09-21T17:01:56.908Z,98314.72
2022-09-21T17:04:29.170Z,98308.56
2022-09-21T17:06:58.296Z,98306.44
2022-09-21T17:09:42.442Z,98310.25
2022-09-21T17:12:11.918Z,98309.88
2022-09-21T17:14:59.563Z,98307.31
2022-09-21T17:17:44.947Z,98306.56
2022-09-21T17:20:20.002Z,98311.09
2022-09-21T17:22:52.657Z,98314.72
2022-09-21T17:25:23.645Z,98318.53
2022-09-21T17:28:15.627Z,98314.09
2022-09-21T17:33:50.634Z,98316.44
2022-09-21T17:36:24.292Z,98325.50
2022-09-21T17:38:59.864Z,98322.03
2022-09-21T17:41:32.643Z,98322.84
2022-09-21T17:44:04.548Z,98326.66
2022-09-21T17:46:58.496Z,98324.94
2022-09-21T17:49:27.206Z,98332.06
2022-09-21T17:52:12.007Z,98331.22
2022-09-21T17:54:42.597Z,98334.50
2022-09-21T17:57:32.460Z,98337.97
2022-09-21T18:00:09.032Z,98333.44
2022-09-21T18:02:37.675Z,98329.94
2022-09-21T18:05:18.078Z,98329.50
2022-09-21T18:07:50.127Z,98333.28
2022-09-21T18:10:18.912Z,98335.25
2022-09-21T18:12:54.579Z,98331.91
2022-09-21T18:15:24.386Z,98334.88
2022-09-21T18:18:00.046Z,98339.63
2022-09-21T18:20:35.587Z,98340.25
2022-09-21T18:23:12.226Z,98344.91
2022-09-21T18:25:48.035Z,98348.81
2022-09-21T18:28:19.011Z,98351.88
2022-09-21T18:30:58.506Z,98354.91
2022-09-21T18:33:30.407Z,98345.88
2022-09-21T18:36:04.099Z,98355.53
2022-09-21T18:38:38.791Z,98356.88
2022-09-21T18:41:14.206Z,98358.59
2022-09-21T18:43:49.840Z,98355.28
2022-09-21T18:46:19.607Z,98356.13
2022-09-21T18:48:53.426Z,98350.88
2022-09-21T18:51:24.608Z,98362.00
2022-09-21T18:53:57.139Z,98353.56
2022-09-21T18:56:26.422Z,98351.47
2022-09-21T18:58:56.166Z,98348.69
2022-09-21T19:01:33.117Z,98346.47
2022-09-21T19:04:02.068Z,98347.59
2022-09-21T19:06:37.218Z,98354.91
2022-09-21T19:09:13.224Z,98350.03
2022-09-21T19:11:45.201Z,98353.69
2022-09-21T19:14:17.324Z,98358.94
2022-09-21T19:16:54.136Z,98354.16
2022-09-21T19:19:30.222Z,98362.84
2022-09-21T19:22:04.109Z,98356.84
2022-09-21T19:24:38.083Z,98358.44
2022-09-21T19:27:15.372Z,98345.38
2022-09-21T19:29:53.354Z,98353.69
2022-09-21T19:32:26.669Z,98351.13
2022-09-21T19:35:02.427Z,98353.28
2022-09-21T19:37:39.106Z,98356.72
2022-09-21T19:40:11.856Z,98357.81
2022-09-21T19:43:05.741Z,98346.34
2022-09-21T19:45:40.425Z,98351.09
2022-09-21T19:48:11.735Z,98355.84
2022-09-21T19:50:46.926Z,98340.00
2022-09-21T19:53:29.656Z,98343.13
2022-09-21T19:56:13.838Z,98353.16
2022-09-21T19:58:56.525Z,98343.72
2022-09-21T20:01:25.405Z,98348.47
2022-09-21T20:03:54.365Z,98342.13
2022-09-21T20:06:24.858Z,98351.59
2022-09-21T20:08:55.701Z,98352.78
2022-09-21T20:11:30.556Z,98355.56
2022-09-21T20:14:10.108Z,98352.81
2022-09-21T20:16:44.393Z,98353.03
2022-09-21T20:19:19.143Z,98346.22
2022-09-21T20:21:50.126Z,98348.66
2022-09-21T20:24:21.763Z,98347.91
2022-09-21T20:26:52.111Z,98348.09
2022-09-21T20:29:20.928Z,98347.41
2022-09-21T20:31:50.261Z,98347.63
2022-09-21T20:34:18.708Z,98351.97
2022-09-21T20:36:47.625Z,98348.09
2022-09-21T20:39:15.952Z,98345.78
2022-09-21T20:41:44.281Z,98352.97
2022-09-21T20:44:15.302Z,98351.16
2022-09-21T20:46:44.056Z,98353.88
2022-09-21T20:49:18.002Z,98353.31
2022-09-21T20:51:46.448Z,98347.03
2022-09-21T20:54:17.496Z,98353.72
2022-09-21T20:56:46.051Z,98349.97
2022-09-21T20:59:16.064Z,98348.19
2022-09-21T21:01:44.757Z,98347.63
2022-09-21T21:04:14.733Z,98343.09
2022-09-21T21:06:43.450Z,98349.53
2022-09-21T21:09:14.048Z,98348.94
2022-09-21T21:11:42.405Z,98353.16
2022-09-21T21:14:11.065Z,98349.44
2022-09-21T21:16:40.948Z,98344.84
2022-09-21T21:19:09.401Z,98345.69
2022-09-21T21:21:37.711Z,98347.38
2022-09-21T21:24:20.207Z,98353.94
2022-09-21T21:27:01.844Z,98351.72
2022-09-21T21:29:33.932Z,98354.84
2022-09-21T21:32:04.371Z,98356.75
2022-09-21T21:34:32.740Z,98355.06
2022-09-21T21:37:01.072Z,98354.34
2022-09-21T21:39:30.691Z,98347.81
2022-09-21T21:41:59.014Z,98359.38
2022-09-21T21:44:27.329Z,98356.41
2022-09-21T21:47:06.185Z,98352.72
2022-09-21T21:49:45.565Z,98355.31
2022-09-21T21:52:13.901Z,98355.41
2022-09-21T21:54:42.679Z,98357.78
2022-09-21T21:57:11.309Z,98355.56
2022-09-21T21:59:39.672Z,98349.44
2022-09-21T22:02:08.067Z,98351.38
2022-09-21T22:04:36.437Z,98350.72
2022-09-21T22:07:06.196Z,98344.28
2022-09-21T22:09:35.009Z,98338.63
2022-09-21T22:12:04.065Z,98342.25
2022-09-21T22:14:32.370Z,98343.88
2022-09-21T22:17:00.721Z,98338.91
2022-09-21T22:19:29.549Z,98336.56
2022-09-21T22:21:57.912Z,98336.66
2022-09-21T22:24:27.671Z,98335.28
2022-09-21T22:26:55.999Z,98331.50
2022-09-21T22:29:24.862Z,98339.66
2022-09-21T22:31:55.520Z,98336.84
2022-09-21T22:34:23.945Z,98340.63
2022-09-21T22:36:52.259Z,98337.00
2022-09-21T22:39:23.191Z,98340.34
2022-09-21T22:41:52.895Z,98335.28
2022-09-21T22:44:21.749Z,98331.84
2022-09-21T22:46:50.096Z,98343.31
2022-09-21T22:49:18.436Z,98332.16
2022-09-21T22:51:46.803Z,98332.81
2022-09-21T22:54:15.114Z,98338.06
2022-09-21T22:56:43.458Z,98333.25
2022-09-21T22:59:13.619Z,98335.50
2022-09-21T23:01:42.003Z,98329.16
2022-09-21T23:04:11.436Z,98334.53
2022-09-21T23:06:42.010Z,98323.81
2022-09-21T23:09:13.016Z,98324.47
2022-09-21T23:11:43.285Z,98319.97
2022-09-21T23:14:14.800Z,98320.28
2022-09-21T23:16:43.441Z,98322.59
2022-09-21T23:19:15.963Z,98316.75
2022-09-21T23:21:46.233Z,98314.72
2022-09-21T23:24:14.620Z,98317.50
2022-09-21T23:26:42.968Z,98314.41
2022-09-21T23:29:13.906Z,98314.91
2022-09-21T23:31:45.100Z,98327.66
2022-09-21T23:34:17.136Z,98320.09
2022-09-21T23:36:46.028Z,98320.84
2022-09-21T23:39:15.442Z,98322.75
2022-09-21T23:41:43.836Z,98321.06
2022-09-21T23:44:13.511Z,98320.09
2022-09-21T23:46:44.158Z,98320.94
2022-09-21T23:49:12.959Z,98320.66
2022-09-21T23:51:41.424Z,98317.00
2022-09-21T23:54:09.712Z,98323.94
2022-09-21T23:56:38.474Z,98319.50
2022-09-21T23:59:06.837Z,98320.31
